Time;durP1;ratioP1;P1;durP2;ratioP2;P2;SDS_P1;SDS_P2;PMS_P1;PMS_P2;Temp;Humidity;BMP_temperature;BMP_pressure;BME280_temperature;BME280_humidity;BME280_pressure;Samples;Min_cycle;Max_cycle;Signal;HPM_P1;HPM_P2
2022/08/26 00:00:54;;;;;;;;;;;538.20;2406.40;;;;;;5070595;28;19920;-56
2022/08/26 00:03:20;;;;;;;;;;;538.20;2406.40;;;;;;5070180;28;19912;-55
2022/08/26 00:05:45;;;;;;;;;;;538.20;2406.40;;;;;;5070541;28;19920;-56
2022/08/26 00:08:13;;;;;;;;;;;538.20;2406.40;;;;;;5070610;28;19908;-57
2022/08/26 00:10:39;;;;;;;;;;;538.20;2406.40;;;;;;5070501;28;19909;-56
2022/08/26 00:13:05;;;;;;;;;;;538.10;2406.40;;;;;;5070423;28;20003;-55
2022/08/26 00:15:31;;;;;;;;;;;538.00;2406.40;;;;;;5070401;28;19966;-55
2022/08/26 00:17:56;;;;;;;;;;;537.90;2406.40;;;;;;5070885;28;19916;-57
2022/08/26 00:20:24;;;;;;;;;;;537.80;2406.40;;;;;;5074225;28;19908;-56
2022/08/26 00:22:50;;;;;;;;;;;537.80;2406.40;;;;;;5074294;28;20269;-55
2022/08/26 00:25:16;;;;;;;;;;;537.80;2406.40;;;;;;5074269;28;20015;-57
2022/08/26 00:27:42;;;;;;;;;;;537.80;2406.40;;;;;;5074006;28;19908;-57
2022/08/26 00:30:11;;;;;;;;;;;537.80;2406.40;;;;;;5073766;28;19913;-55
2022/08/26 00:32:36;;;;;;;;;;;537.90;2406.40;;;;;;5073916;28;19951;-55
2022/08/26 00:35:02;;;;;;;;;;;537.90;2406.40;;;;;;5073990;28;19974;-57
2022/08/26 00:37:28;;;;;;;;;;;537.90;2406.40;;;;;;5073817;28;19909;-55
2022/08/26 00:39:53;;;;;;;;;;;537.90;2406.40;;;;;;5074166;28;19919;-56
2022/08/26 00:42:19;;;;;;;;;;;537.90;2406.40;;;;;;5073824;28;19909;-56
2022/08/26 00:44:45;;;;;;;;;;;537.90;2406.40;;;;;;5073936;28;19916;-56
2022/08/26 00:47:19;;;;;;;;;;;537.90;2406.40;;;;;;5073449;28;19908;-55
2022/08/26 00:49:46;;;;;;;;;;;537.90;2406.40;;;;;;5073625;28;19919;-55
2022/08/26 00:52:14;;;;;;;;;;;537.90;2406.40;;;;;;5073975;28;19954;-57
2022/08/26 00:54:45;;;;;;;;;;;537.90;2406.40;;;;;;5073480;28;20369;-55
2022/08/26 00:57:13;;;;;;;;;;;537.80;2406.40;;;;;;5073366;28;20350;-57
2022/08/26 00:59:39;;;;;;;;;;;537.90;2406.40;;;;;;5073330;28;19931;-54
2022/08/26 01:02:05;;;;;;;;;;;537.90;2406.40;;;;;;5073550;28;19912;-56
2022/08/26 01:04:32;;;;;;;;;;;537.90;2406.40;;;;;;5071608;28;20366;-55
2022/08/26 01:06:58;;;;;;;;;;;538.00;2406.40;;;;;;5073211;28;19909;-55
2022/08/26 01:09:24;;;;;;;;;;;537.90;2406.40;;;;;;5073580;28;20400;-57
2022/08/26 01:11:51;;;;;;;;;;;537.90;2406.40;;;;;;5073277;28;19908;-55
2022/08/26 01:14:17;;;;;;;;;;;537.80;2406.40;;;;;;5073429;28;19956;-54
2022/08/26 01:16:43;;;;;;;;;;;537.80;2406.40;;;;;;5073288;28;19915;-58
2022/08/26 01:19:14;;;;;;;;;;;537.80;2406.40;;;;;;5072834;28;19908;-54
2022/08/26 01:21:40;;;;;;;;;;;;;;;;;;5072982;28;19908;-56
2022/08/26 01:24:06;;;;;;;;;;;537.60;2406.40;;;;;;5073059;28;19917;-55
2022/08/26 01:26:33;;;;;;;;;;;512.90;2355.20;;;;;;5072795;28;19908;-56
2022/08/26 01:29:00;;;;;;;;;;;512.90;2124.80;;;;;;5072710;28;19970;-53
2022/08/26 01:31:28;;;;;;;;;;;537.60;2406.40;;;;;;5072223;28;19913;-58
2022/08/26 01:34:00;;;;;;;;;;;537.60;2406.40;;;;;;5072934;28;20388;-55
2022/08/26 01:36:26;;;;;;;;;;;537.70;2406.40;;;;;;5072863;28;19908;-57
2022/08/26 01:38:52;;;;;;;;;;;537.70;2406.40;;;;;;5073094;28;19915;-55
2022/08/26 01:41:18;;;;;;;;;;;512.90;2380.80;;;;;;5072582;28;20259;-55
2022/08/26 01:43:45;;;;;;;;;;;537.60;2406.40;;;;;;5072534;28;19916;-57
2022/08/26 01:46:11;;;;;;;;;;;537.70;2406.40;;;;;;5072559;28;19970;-57
2022/08/26 01:48:37;;;;;;;;;;;537.70;2406.40;;;;;;5072497;28;19908;-55
2022/08/26 01:51:04;;;;;;;;;;;537.70;2406.40;;;;;;5072453;28;20255;-55
2022/08/26 01:53:29;;;;;;;;;;;537.80;2406.40;;;;;;5072565;28;19932;-55
2022/08/26 01:55:57;;;;;;;;;;;537.70;2406.40;;;;;;5072454;28;20371;-56
2022/08/26 01:58:25;;;;;;;;;;;537.70;2406.40;;;;;;5072499;28;20259;-56
2022/08/26 02:00:50;;;;;;;;;;;537.70;2406.40;;;;;;5071951;28;19919;-55
2022/08/26 02:03:16;;;;;;;;;;;537.70;2406.40;;;;;;5072234;28;19912;-57
2022/08/26 02:05:47;;;;;;;;;;;537.60;2406.40;;;;;;5072062;28;20393;-55
2022/08/26 02:08:13;;;;;;;;;;;537.60;2406.40;;;;;;5072332;28;19951;-57
2022/08/26 02:10:39;;;;;;;;;;;537.60;2406.40;;;;;;5072050;28;19909;-57
2022/08/26 02:13:06;;;;;;;;;;;537.60;2406.40;;;;;;5072216;28;19915;-55
2022/08/26 02:15:33;;;;;;;;;;;537.60;2406.40;;;;;;5072006;28;19908;-57
2022/08/26 02:17:58;;;;;;;;;;;537.60;2406.40;;;;;;5071816;28;20011;-55
2022/08/26 02:20:24;;;;;;;;;;;537.60;2406.40;;;;;;5072140;28;20065;-54
2022/08/26 02:22:50;;;;;;;;;;;537.60;2406.40;;;;;;5071879;28;19944;-56
2022/08/26 02:25:19;;;;;;;;;;;537.60;2406.40;;;;;;5072059;28;19962;-56
2022/08/26 02:27:45;;;;;;;;;;;537.60;2406.40;;;;;;5071835;28;19909;-54
2022/08/26 02:30:13;;;;;;;;;;;537.60;2406.40;;;;;;5071463;28;19913;-55
2022/08/26 02:32:39;;;;;;;;;;;537.60;2406.40;;;;;;5071422;28;19939;-55
2022/08/26 02:35:06;;;;;;;;;;;512.90;2380.80;;;;;;5071982;28;19919;-55
2022/08/26 02:37:31;;;;;;;;;;;537.60;2406.40;;;;;;5071537;28;19908;-57
2022/08/26 02:39:57;;;;;;;;;;;512.80;2022.40;;;;;;5071506;28;19919;-56
2022/08/26 02:42:23;;;;;;;;;;;512.80;2380.80;;;;;;5071396;28;19954;-56
2022/08/26 02:44:49;;;;;;;;;;;512.70;2380.80;;;;;;5071413;28;19969;-55
2022/08/26 02:47:14;;;;;;;;;;;512.60;2304.00;;;;;;5071538;28;19934;-55
2022/08/26 02:49:43;;;;;;;;;;;512.70;1996.80;;;;;;5071132;28;19991;-56
2022/08/26 02:52:09;;;;;;;;;;;512.80;2380.80;;;;;;5071340;28;20034;-54
2022/08/26 02:54:35;;;;;;;;;;;512.80;2380.80;;;;;;5071636;28;19909;-55
2022/08/26 02:57:01;;;;;;;;;;;512.80;2380.80;;;;;;5071064;28;19915;-55
2022/08/26 02:59:28;;;;;;;;;;;512.80;2380.80;;;;;;5071228;28;19999;-57
2022/08/26 03:01:53;;;;;;;;;;;512.90;2380.80;;;;;;5071257;28;19912;-56
2022/08/26 03:04:20;;;;;;;;;;;512.90;2380.80;;;;;;5070737;28;19966;-55
2022/08/26 03:06:45;;;;;;;;;;;512.80;2380.80;;;;;;5071241;28;20274;-57
2022/08/26 03:09:11;;;;;;;;;;;512.80;2380.80;;;;;;5071429;28;19934;-57
2022/08/26 03:11:38;;;;;;;;;;;512.80;2380.80;;;;;;5071224;28;20313;-55
2022/08/26 03:14:04;;;;;;;;;;;512.80;2380.80;;;;;;5071273;28;19913;-54
2022/08/26 03:16:31;;;;;;;;;;;512.80;2380.80;;;;;;5070991;28;19909;-54
2022/08/26 03:18:56;;;;;;;;;;;512.80;2380.80;;;;;;5070833;28;20365;-55
2022/08/26 03:21:22;;;;;;;;;;;512.80;2380.80;;;;;;5071306;28;19951;-57
2022/08/26 03:23:48;;;;;;;;;;;512.80;2380.80;;;;;;5070886;28;20274;-54
2022/08/26 03:26:14;;;;;;;;;;;512.80;2380.80;;;;;;5071140;28;19958;-57
2022/08/26 03:30:38;;;;;;;;;;;512.80;2380.80;;;;;;5070922;28;19909;-57
2022/08/26 03:31:26;;;;;;;;;;;512.80;2380.80;;;;;;5070727;28;19913;-56
2022/08/26 03:33:52;;;;;;;;;;;512.80;2380.80;;;;;;5070716;28;19913;-54
2022/08/26 03:36:17;;;;;;;;;;;512.80;2380.80;;;;;;5070736;28;19957;-55
2022/08/26 03:38:43;;;;;;;;;;;512.70;2380.80;;;;;;5071096;28;20023;-55
2022/08/26 03:41:11;;;;;;;;;;;512.70;2380.80;;;;;;5070700;28;19947;-55
2022/08/26 03:43:37;;;;;;;;;;;512.70;2380.80;;;;;;5070716;28;19908;-55
2022/08/26 03:46:10;;;;;;;;;;;512.70;2380.80;;;;;;5070934;28;19952;-57
2022/08/26 03:48:35;;;;;;;;;;;512.70;2380.80;;;;;;5070741;28;20282;-57
2022/08/26 03:51:01;;;;;;;;;;;512.70;2380.80;;;;;;5070726;28;19908;-54
2022/08/26 03:53:27;;;;;;;;;;;512.70;2380.80;;;;;;5072135;28;19919;-55
2022/08/26 03:55:53;;;;;;;;;;;512.70;2380.80;;;;;;5074773;28;19908;-55
2022/08/26 03:58:19;;;;;;;;;;;512.80;2380.80;;;;;;5074654;28;19908;-54
2022/08/26 04:00:45;;;;;;;;;;;512.80;2380.80;;;;;;5074667;28;20366;-54
2022/08/26 04:03:10;;;;;;;;;;;512.80;2380.80;;;;;;5074484;28;19958;-55
2022/08/26 04:05:36;;;;;;;;;;;512.80;2380.80;;;;;;5074662;28;20344;-54
2022/08/26 04:08:04;;;;;;;;;;;512.90;2380.80;;;;;;5074573;28;20274;-58
2022/08/26 04:10:30;;;;;;;;;;;512.90;2380.80;;;;;;5074530;28;20282;-57
2022/08/26 04:12:57;;;;;;;;;;;512.90;2380.80;;;;;;5074582;28;19908;-55
2022/08/26 04:15:22;;;;;;;;;;;512.90;2380.80;;;;;;5074431;28;19923;-55
2022/08/26 04:17:48;;;;;;;;;;;537.60;2406.40;;;;;;5074204;28;19908;-57
2022/08/26 04:20:16;;;;;;;;;;;537.60;2406.40;;;;;;5074429;28;19915;-57
2022/08/26 04:22:43;;;;;;;;;;;537.70;2406.40;;;;;;5074504;28;19912;-55
2022/08/26 04:25:08;;;;;;;;;;;537.80;2406.40;;;;;;5073851;28;19920;-55
2022/08/26 04:27:34;;;;;;;;;;;538.00;2406.40;;;;;;5074199;28;19919;-55
2022/08/26 04:30:00;;;;;;;;;;;538.00;2406.40;;;;;;5073910;28;19987;-55
2022/08/26 04:32:25;;;;;;;;;;;538.10;2406.40;;;;;;5074053;28;19963;-57
2022/08/26 04:34:51;;;;;;;;;;;538.40;2406.40;;;;;;5073894;28;19908;-55
2022/08/26 04:37:16;;;;;;;;;;;563.20;2432.00;;;;;;5073924;28;19908;-55
2022/08/26 04:39:42;;;;;;;;;;;563.20;2432.00;;;;;;5073972;28;19908;-56
2022/08/26 04:42:07;;;;;;;;;;;563.40;2432.00;;;;;;5073813;28;19920;-55
2022/08/26 04:44:33;;;;;;;;;;;563.50;2432.00;;;;;;5073838;28;19916;-56
2022/08/26 04:46:59;;;;;;;;;;;563.60;2432.00;;;;;;5073665;28;19908;-55
2022/08/26 04:49:25;;;;;;;;;;;563.80;2432.00;;;;;;5073713;28;19954;-58
2022/08/26 04:51:51;;;;;;;;;;;563.90;2432.00;;;;;;5073578;28;20007;-55
2022/08/26 04:54:17;;;;;;;;;;;564.10;2432.00;;;;;;5073639;28;19919;-54
2022/08/26 04:56:43;;;;;;;;;;;588.80;2432.00;;;;;;5073685;28;19912;-56
2022/08/26 04:59:14;;;;;;;;;;;589.00;2432.00;;;;;;5073428;28;19908;-55
2022/08/26 05:01:43;;;;;;;;;;;589.70;2432.00;;;;;;5073377;28;19908;-56
2022/08/26 05:04:09;;;;;;;;;;;615.00;2432.00;;;;;;5072454;28;19936;-55
2022/08/26 05:06:34;;;;;;;;;;;640.50;2432.00;;;;;;5073056;28;19917;-55
2022/08/26 05:09:00;;;;;;;;;;;640.50;2432.00;;;;;;5073216;28;20366;-55
2022/08/26 05:11:26;;;;;;;;;;;640.70;2432.00;;;;;;5073572;28;19954;-55
2022/08/26 05:13:52;;;;;;;;;;;;;;;;;;5073331;28;20094;-56
2022/08/26 05:16:18;;;;;;;;;;;691.70;2432.00;;;;;;5073112;28;19920;-56
2022/08/26 05:18:44;;;;;;;;;;;691.80;2432.00;;;;;;5073087;28;20271;-58
2022/08/26 05:21:17;;;;;;;;;;;742.40;2432.00;;;;;;5072910;28;20350;-57
2022/08/26 05:23:43;;;;;;;;;;;;;;;;;;5073045;28;19908;-56
2022/08/26 05:26:08;;;;;;;;;;;768.80;2304.00;;;;;;5072773;28;19913;-56
2022/08/26 05:28:34;;;;;;;;;;;793.70;2278.40;;;;;;5073145;28;19908;-56
2022/08/26 05:31:00;;;;;;;;;;;793.90;2227.20;;;;;;5072772;28;19914;-57
2022/08/26 05:33:25;;;;;;;;;;;794.10;2176.00;;;;;;5072943;28;20011;-56
2022/08/26 05:35:51;;;;;;;;;;;819.80;2048.00;;;;;;5072836;28;19909;-58
2022/08/26 05:38:18;;;;;;;;;;;844.90;1996.80;;;;;;5072963;28;20009;-55
2022/08/26 05:40:45;;;;;;;;;;;845.20;1971.20;;;;;;5072926;28;19908;-58
2022/08/26 05:43:12;;;;;;;;;;;870.70;1868.80;;;;;;5072647;28;20301;-59
2022/08/26 05:45:42;;;;;;;;;;;871.00;1817.60;;;;;;5072559;28;19920;-56
2022/08/26 05:48:08;;;;;;;;;;;896.00;1766.40;;;;;;5072513;28;19920;-56
2022/08/26 05:50:41;;;;;;;;;;;896.50;1740.80;;;;;;5072719;28;19908;-58
2022/08/26 05:53:07;;;;;;;;;;;921.80;1715.20;;;;;;5072573;28;19954;-57
2022/08/26 05:55:33;;;;;;;;;;;922.10;1664.00;;;;;;5072502;28;20378;-57
2022/08/26 05:57:59;;;;;;;;;;;947.50;1612.80;;;;;;5072357;28;19955;-56
2022/08/26 06:00:25;;;;;;;;;;;947.20;1612.80;;;;;;5072553;28;19919;-60
2022/08/26 06:02:50;;;;;;;;;;;922.50;1638.40;;;;;;5072231;28;19912;-56
2022/08/26 06:05:16;;;;;;;;;;;947.70;1587.20;;;;;;5072172;28;19921;-56
2022/08/26 06:10:45;;;;;;;;;;;922.40;1612.80;;;;;;5029849;28;20385;-57
2022/08/26 06:13:11;;;;;;;;;;;921.60;1664.00;;;;;;5029789;28;19913;-59
2022/08/26 06:15:44;;;;;;;;;;;922.30;1638.40;;;;;;5029562;28;19909;-57
2022/08/26 06:18:10;;;;;;;;;;;947.50;1587.20;;;;;;5029835;28;19915;-59
2022/08/26 06:20:36;;;;;;;;;;;948.10;1561.60;;;;;;5029987;28;19944;-59
2022/08/26 06:25:47;;;;;;;;;;;973.10;1561.60;;;;;;5029682;28;19964;-58
2022/08/26 06:28:13;;;;;;;;;;;;;;;;;;5029660;28;19925;-60
2022/08/26 06:30:39;;;;;;;;;;;973.40;1561.60;;;;;;5029533;28;19949;-59
2022/08/26 06:33:06;;;;;;;;;;;998.70;1484.80;;;;;;5029739;28;19913;-60
2022/08/26 06:35:35;;;;;;;;;;;1024.10;1433.60;;;;;;5029489;28;19948;-56
2022/08/26 06:38:01;;;;;;;;;;;1049.60;1408.00;;;;;;5029547;28;19909;-59
2022/08/26 06:40:27;;;;;;;;;;;1050.20;1356.80;;;;;;5029354;28;19916;-56
2022/08/26 06:42:53;;;;;;;;;;;1050.50;1356.80;;;;;;5029795;28;19916;-57
2022/08/26 06:45:19;;;;;;;;;;;1075.20;1331.20;;;;;;5029387;28;20275;-57
2022/08/26 06:47:44;;;;;;;;;;;1075.70;1305.60;;;;;;5063763;28;20004;-57
2022/08/26 06:50:10;;;;;;;;;;;;;;;;;;5071254;28;19912;-60
2022/08/26 06:52:36;;;;;;;;;;;;;;;;;;5071477;28;20359;-60
2022/08/26 06:55:02;;;;;;;;;;;;;;;;;;5071363;28;19916;-59
2022/08/26 06:57:31;;;;;;;;;;;;;;;;;;5071084;28;19912;-59
2022/08/26 06:59:57;;;;;;;;;;;;;;;;;;5071002;28;19954;-56
2022/08/26 07:02:23;;;;;;;;;;;;;;;;;;5071405;28;19960;-60
2022/08/26 07:04:48;;;;;;;;;;;1075.90;1305.60;;;;;;5070862;28;20334;-57
2022/08/26 07:07:14;;;;;;;;;;;1101.50;1254.40;;;;;;5071400;28;19909;-57
2022/08/26 07:09:40;;;;;;;;;;;1101.60;1228.80;;;;;;5070566;28;20001;-58
2022/08/26 07:12:05;;;;;;;;;;;1126.80;1254.40;;;;;;5072775;28;19927;-59
2022/08/26 07:14:32;;;;;;;;;;;1127.00;1228.80;;;;;;5074941;28;19912;-58
2022/08/26 07:16:59;;;;;;;;;;;1126.80;1228.80;;;;;;5074446;28;19920;-58
2022/08/26 07:19:24;;;;;;;;;;;1127.10;1203.20;;;;;;5075317;28;19912;-60
2022/08/26 07:21:50;;;;;;;;;;;1127.30;1203.20;;;;;;5080222;28;19912;-60
2022/08/26 07:24:15;;;;;;;;;;;1152.50;1177.60;;;;;;5079185;28;19920;-60
2022/08/26 07:26:41;;;;;;;;;;;1177.70;1152.00;;;;;;5076507;28;19912;-59
2022/08/26 07:29:06;;;;;;;;;;;1177.70;1152.00;;;;;;5072234;28;20843;-57
2022/08/26 07:31:34;;;;;;;;;;;1177.80;1126.40;;;;;;5074142;28;19920;-60
2022/08/26 07:34:01;;;;;;;;;;;1152.70;1152.00;;;;;;5073585;28;19917;-59
2022/08/26 07:36:27;;;;;;;;;;;1152.90;1152.00;;;;;;5077764;28;20062;-60
2022/08/26 07:38:53;;;;;;;;;;;1178.10;1100.80;;;;;;5078765;28;19927;-58
2022/08/26 07:41:21;;;;;;;;;;;1178.30;1100.80;;;;;;5073386;28;19920;-59
2022/08/26 07:43:47;;;;;;;;;;;1178.50;1075.20;;;;;;5084227;28;19954;-59
2022/08/26 07:46:17;;;;;;;;;;;1178.30;1100.80;;;;;;5070896;28;19972;-57
2022/08/26 07:48:43;;;;;;;;;;;1178.30;1075.20;;;;;;5072666;28;19919;-59
2022/08/26 07:51:09;;;;;;;;;;;1203.20;1100.80;;;;;;5079066;28;19908;-59
2022/08/26 07:53:35;;;;;;;;;;;1203.70;1075.20;;;;;;5069113;28;19918;-59
2022/08/26 07:56:01;;;;;;;;;;;1203.70;1075.20;;;;;;5069125;28;19909;-61
2022/08/26 07:58:27;;;;;;;;;;;1203.80;1075.20;;;;;;5069238;28;20429;-57
2022/08/26 08:00:53;;;;;;;;;;;1203.30;1075.20;;;;;;5069126;28;19913;-58
2022/08/26 08:03:19;;;;;;;;;;;1204.10;1049.60;;;;;;5068967;28;19938;-59
2022/08/26 08:05:44;;;;;;;;;;;1203.90;1049.60;;;;;;5069259;28;20394;-58
2022/08/26 08:08:10;;;;;;;;;;;1203.80;1075.20;;;;;;5070523;28;19915;-58
2022/08/26 08:10:36;;;;;;;;;;;1228.80;1075.20;;;;;;5070705;28;19908;-59
2022/08/26 08:13:02;;;;;;;;;;;1228.90;1075.20;;;;;;5070409;28;19934;-58
2022/08/26 08:15:30;;;;;;;;;;;1229.40;1049.60;;;;;;5070633;28;19935;-58
2022/08/26 08:17:56;;;;;;;;;;;1254.40;1075.20;;;;;;5070370;28;20035;-59
2022/08/26 08:20:22;;;;;;;;;;;1229.20;1075.20;;;;;;5067923;28;19919;-60
2022/08/26 08:22:48;;;;;;;;;;;1254.50;1049.60;;;;;;5068185;28;19916;-58
2022/08/26 08:25:14;;;;;;;;;;;1254.60;1024.00;;;;;;5068094;28;20381;-58
2022/08/26 08:27:40;;;;;;;;;;;1254.60;1024.00;;;;;;5068007;28;19913;-60
2022/08/26 08:30:07;;;;;;;;;;;1254.60;998.40;;;;;;5068203;28;20400;-58
2022/08/26 08:32:32;;;;;;;;;;;1229.70;998.40;;;;;;5067634;28;19918;-58
2022/08/26 08:34:58;;;;;;;;;;;1204.10;1024.00;;;;;;5068035;28;19924;-58
2022/08/26 08:37:24;;;;;;;;;;;1178.20;1049.60;;;;;;5068232;28;19915;-58
2022/08/26 08:39:50;;;;;;;;;;;1177.70;1049.60;;;;;;5070367;28;19908;-59
2022/08/26 08:42:37;;;;;;;;;;;1152.40;1100.80;;;;;;5073839;28;19909;-55
2022/08/26 08:45:03;;;;;;;;;;;;;;;;;;5073775;28;20003;-57
2022/08/26 08:47:42;;;;;;;;;;;1100.80;1177.60;;;;;;5073576;28;19944;-57
2022/08/26 08:50:28;;;;;;;;;;;1050.00;1254.40;;;;;;5073478;28;19917;-58
2022/08/26 08:53:13;;;;;;;;;;;1024.10;1280.00;;;;;;5073092;28;19958;-56
2022/08/26 08:55:59;;;;;;;;;;;998.80;1331.20;;;;;;5073276;28;20358;-56
2022/08/26 08:58:41;;;;;;;;;;;973.60;1356.80;;;;;;5062497;28;20011;-57
2022/08/26 09:01:10;;;;;;;;;;;972.90;1382.40;;;;;;5073425;28;20452;-57
2022/08/26 09:03:41;;;;;;;;;;;947.70;1408.00;;;;;;5073434;28;20342;-57
2022/08/26 09:06:16;;;;;;;;;;;947.30;1408.00;;;;;;5073082;28;19920;-56
2022/08/26 09:08:43;;;;;;;;;;;947.20;1433.60;;;;;;5073281;28;20003;-56
2022/08/26 09:11:08;;;;;;;;;;;922.40;1433.60;;;;;;5070006;28;19923;-55
2022/08/26 09:13:34;;;;;;;;;;;922.10;1433.60;;;;;;5068247;28;20366;-57
2022/08/26 09:16:00;;;;;;;;;;;921.90;1459.20;;;;;;5070467;28;20031;-56
2022/08/26 09:18:29;;;;;;;;;;;921.80;1484.80;;;;;;5070940;28;20406;-57
2022/08/26 09:21:02;;;;;;;;;;;921.80;1484.80;;;;;;5067926;28;19912;-56
2022/08/26 09:23:27;;;;;;;;;;;896.90;1484.80;;;;;;5070321;28;19939;-56
2022/08/26 09:25:55;;;;;;;;;;;896.90;1484.80;;;;;;5070597;28;19948;-55
2022/08/26 09:28:21;;;;;;;;;;;921.60;1510.40;;;;;;5070426;28;20316;-56
2022/08/26 09:30:57;;;;;;;;;;;896.70;1484.80;;;;;;5070606;28;19962;-58
2022/08/26 09:33:26;;;;;;;;;;;896.90;1484.80;;;;;;5070554;28;19916;-56
2022/08/26 09:36:09;;;;;;;;;;;896.80;1484.80;;;;;;5067515;28;19974;-57
2022/08/26 09:38:35;;;;;;;;;;;896.90;1484.80;;;;;;5070581;28;19913;-56
2022/08/26 09:41:02;;;;;;;;;;;921.60;1536.00;;;;;;5070412;28;20020;-57
2022/08/26 09:43:28;;;;;;;;;;;896.80;1510.40;;;;;;5070399;28;19912;-57
2022/08/26 09:46:07;;;;;;;;;;;896.80;1510.40;;;;;;5070699;28;19919;-56
2022/08/26 09:48:34;;;;;;;;;;;896.70;1536.00;;;;;;5070717;28;19930;-56
2022/08/26 09:51:02;;;;;;;;;;;896.50;1484.80;;;;;;5069089;28;19958;-57
2022/08/26 09:53:29;;;;;;;;;;;;;;;;;;5070306;28;20011;-57
2022/08/26 09:56:13;;;;;;;;;;;896.20;1561.60;;;;;;5070283;28;20389;-57
2022/08/26 09:58:40;;;;;;;;;;;896.30;1536.00;;;;;;5070225;28;19999;-56
2022/08/26 10:01:26;;;;;;;;;;;896.30;1561.60;;;;;;5070360;28;19919;-57
2022/08/26 10:03:52;;;;;;;;;;;896.30;1561.60;;;;;;5062837;28;20378;-56
2022/08/26 10:06:18;;;;;;;;;;;896.70;1536.00;;;;;;5071871;28;20020;-57
2022/08/26 10:08:45;;;;;;;;;;;896.70;1510.40;;;;;;5072417;28;19916;-56
2022/08/26 10:11:16;;;;;;;;;;;896.90;1510.40;;;;;;5072117;28;19916;-57
2022/08/26 10:13:43;;;;;;;;;;;896.80;1536.00;;;;;;5072037;28;19912;-56
2022/08/26 10:16:20;;;;;;;;;;;896.20;1536.00;;;;;;5071951;28;19913;-57
2022/08/26 10:18:52;;;;;;;;;;;896.10;1561.60;;;;;;5071963;28;20347;-57
2022/08/26 10:21:27;;;;;;;;;;;896.30;1561.60;;;;;;5072044;28;20282;-56
2022/08/26 10:23:55;;;;;;;;;;;896.40;1536.00;;;;;;5072028;28;20339;-56
2022/08/26 10:26:32;;;;;;;;;;;896.10;1536.00;;;;;;5071618;28;19924;-56
2022/08/26 10:29:06;;;;;;;;;;;896.40;1561.60;;;;;;5071579;28;19956;-56
2022/08/26 10:31:41;;;;;;;;;;;896.30;1536.00;;;;;;5071676;28;19913;-58
2022/08/26 10:34:07;;;;;;;;;;;896.00;1561.60;;;;;;5071569;28;19923;-56
2022/08/26 10:36:48;;;;;;;;;;;870.50;1612.80;;;;;;5071714;28;19908;-57
2022/08/26 10:39:24;;;;;;;;;;;870.90;1587.20;;;;;;5071769;28;19909;-56
2022/08/26 10:41:52;;;;;;;;;;;870.50;1587.20;;;;;;5071529;28;19908;-57
2022/08/26 10:44:19;;;;;;;;;;;845.60;1612.80;;;;;;5071265;28;19916;-56
2022/08/26 10:46:48;;;;;;;;;;;845.70;1612.80;;;;;;5071678;28;19913;-57
2022/08/26 10:49:15;;;;;;;;;;;870.50;1612.80;;;;;;5071633;28;20003;-56
2022/08/26 10:51:49;;;;;;;;;;;870.80;1561.60;;;;;;5071160;28;19908;-57
2022/08/26 10:54:19;;;;;;;;;;;870.90;1561.60;;;;;;5071474;28;20355;-57
2022/08/26 10:57:07;;;;;;;;;;;870.90;1561.60;;;;;;5071399;28;19992;-56
2022/08/26 10:59:42;;;;;;;;;;;870.70;1510.40;;;;;;5071281;28;19909;-56
2022/08/26 11:02:08;;;;;;;;;;;845.60;1536.00;;;;;;5071229;28;19920;-57
2022/08/26 11:04:37;;;;;;;;;;;870.50;1510.40;;;;;;5071235;28;19912;-57
2022/08/26 11:07:21;;;;;;;;;;;870.90;1536.00;;;;;;5071205;28;19951;-56
2022/08/26 11:09:47;;;;;;;;;;;870.90;1536.00;;;;;;5071199;28;19908;-56
2022/08/26 11:12:32;;;;;;;;;;;870.90;1536.00;;;;;;5071367;28;19912;-56
2022/08/26 11:14:57;;;;;;;;;;;870.90;1561.60;;;;;;5070841;28;19916;-56
2022/08/26 11:17:41;;;;;;;;;;;870.90;1536.00;;;;;;5071258;28;19908;-56
2022/08/26 11:20:07;;;;;;;;;;;871.20;1510.40;;;;;;5070702;28;19908;-57
2022/08/26 11:22:34;;;;;;;;;;;871.30;1510.40;;;;;;5071347;28;19915;-56
2022/08/26 11:25:01;;;;;;;;;;;870.90;1510.40;;;;;;5070721;28;19909;-57
2022/08/26 11:27:36;;;;;;;;;;;870.40;1510.40;;;;;;5071001;28;19956;-57
2022/08/26 11:30:08;;;;;;;;;;;845.70;1536.00;;;;;;5070688;28;19919;-56
2022/08/26 11:32:33;;;;;;;;;;;845.40;1536.00;;;;;;5070965;28;19958;-57
2022/08/26 11:35:01;;;;;;;;;;;845.20;1561.60;;;;;;5070607;28;19920;-56
2022/08/26 11:37:30;;;;;;;;;;;844.90;1561.60;;;;;;5071032;28;19912;-57
2022/08/26 11:39:56;;;;;;;;;;;844.80;1587.20;;;;;;5070939;28;19915;-56
2022/08/26 11:42:27;;;;;;;;;;;844.80;1587.20;;;;;;5069278;28;19909;-56
2022/08/26 11:44:53;;;;;;;;;;;844.80;1587.20;;;;;;5068575;28;19909;-56
2022/08/26 11:47:26;;;;;;;;;;;844.90;1561.60;;;;;;5068542;28;19920;-57
2022/08/26 11:50:09;;;;;;;;;;;820.10;1536.00;;;;;;5068915;28;20003;-55
2022/08/26 11:52:35;;;;;;;;;;;845.10;1561.60;;;;;;5068826;28;20023;-57
2022/08/26 11:55:01;;;;;;;;;;;845.20;1561.60;;;;;;5068581;28;20367;-56
2022/08/26 11:57:27;;;;;;;;;;;845.30;1587.20;;;;;;5068259;28;19916;-57
2022/08/26 11:59:53;;;;;;;;;;;845.30;1587.20;;;;;;5068402;28;19909;-57
2022/08/26 12:02:19;;;;;;;;;;;845.40;1587.20;;;;;;5068473;28;19942;-57
2022/08/26 12:04:47;;;;;;;;;;;845.30;1536.00;;;;;;5068622;28;19920;-56
2022/08/26 12:07:13;;;;;;;;;;;845.40;1561.60;;;;;;5068601;28;20423;-56
2022/08/26 12:09:49;;;;;;;;;;;845.20;1510.40;;;;;;5067946;28;19916;-57
2022/08/26 12:12:17;;;;;;;;;;;844.80;1536.00;;;;;;5068565;28;19916;-55
2022/08/26 12:14:43;;;;;;;;;;;844.90;1510.40;;;;;;5070548;28;19921;-55
2022/08/26 12:17:16;;;;;;;;;;;844.90;1510.40;;;;;;5072096;28;19969;-55
2022/08/26 12:19:42;;;;;;;;;;;845.10;1561.60;;;;;;5072147;28;19908;-56
2022/08/26 12:22:28;;;;;;;;;;;845.30;1510.40;;;;;;5071566;28;19913;-57
2022/08/26 12:24:58;;;;;;;;;;;845.30;1510.40;;;;;;5072243;28;19908;-56
2022/08/26 12:27:25;;;;;;;;;;;845.60;1587.20;;;;;;5072189;28;19990;-56
2022/08/26 12:30:01;;;;;;;;;;;845.70;1561.60;;;;;;5071772;28;20358;-57
2022/08/26 12:32:27;;;;;;;;;;;870.60;1510.40;;;;;;5072134;28;19920;-58
2022/08/26 12:34:53;;;;;;;;;;;870.80;1536.00;;;;;;5071596;28;19916;-57
2022/08/26 12:37:19;;;;;;;;;;;871.00;1510.40;;;;;;5072085;28;19912;-58
2022/08/26 12:39:46;;;;;;;;;;;870.90;1459.20;;;;;;5072022;28;19912;-58
2022/08/26 12:42:12;;;;;;;;;;;871.00;1536.00;;;;;;5071674;28;20007;-57
2022/08/26 12:44:43;;;;;;;;;;;871.10;1459.20;;;;;;5071713;28;20018;-57
2022/08/26 12:47:11;;;;;;;;;;;870.90;1433.60;;;;;;5071607;28;19912;-57
2022/08/26 12:49:38;;;;;;;;;;;871.20;1484.80;;;;;;5071433;28;19912;-56
2022/08/26 12:52:05;;;;;;;;;;;871.20;1484.80;;;;;;5071714;28;20390;-57
2022/08/26 12:57:15;;;;;;;;;;;871.30;1459.20;;;;;;5072013;28;19962;-56
2022/08/26 12:59:40;;;;;;;;;;;870.90;1484.80;;;;;;5071212;28;19909;-56
2022/08/26 13:02:06;;;;;;;;;;;845.70;1510.40;;;;;;5071136;28;20007;-56
2022/08/26 13:04:31;;;;;;;;;;;845.70;1510.40;;;;;;5071065;28;19912;-57
2022/08/26 13:07:16;;;;;;;;;;;845.70;1561.60;;;;;;5071302;28;19947;-56
2022/08/26 13:09:41;;;;;;;;;;;870.50;1536.00;;;;;;5071147;28;19908;-56
2022/08/26 13:12:07;;;;;;;;;;;870.70;1510.40;;;;;;5071448;28;19909;-56
2022/08/26 13:14:32;;;;;;;;;;;870.70;1561.60;;;;;;5070817;28;19916;-56
2022/08/26 13:16:58;;;;;;;;;;;870.40;1510.40;;;;;;5071053;28;19924;-56
2022/08/26 13:19:24;;;;;;;;;;;845.50;1510.40;;;;;;5071414;28;20405;-58
2022/08/26 13:21:54;;;;;;;;;;;870.40;1536.00;;;;;;5070963;28;20062;-56
2022/08/26 13:24:40;;;;;;;;;;;845.60;1510.40;;;;;;5071203;28;19908;-57
2022/08/26 13:27:07;;;;;;;;;;;845.50;1536.00;;;;;;5069279;28;19927;-56
2022/08/26 13:29:33;;;;;;;;;;;845.20;1510.40;;;;;;5071191;28;19909;-57
2022/08/26 13:31:59;;;;;;;;;;;845.30;1510.40;;;;;;5070711;28;19916;-57
2022/08/26 13:34:24;;;;;;;;;;;845.60;1510.40;;;;;;5070878;28;19924;-56
2022/08/26 13:36:52;;;;;;;;;;;845.70;1510.40;;;;;;5070696;28;19932;-57
2022/08/26 13:39:17;;;;;;;;;;;845.60;1587.20;;;;;;5070957;28;19908;-58
2022/08/26 13:41:43;;;;;;;;;;;845.50;1587.20;;;;;;5070587;28;19912;-56
2022/08/26 13:44:09;;;;;;;;;;;845.40;1561.60;;;;;;5070552;28;19912;-56
2022/08/26 13:46:35;;;;;;;;;;;845.20;1561.60;;;;;;5070726;28;20020;-56
2022/08/26 13:49:01;;;;;;;;;;;845.20;1587.20;;;;;;5070513;28;19908;-57
2022/08/26 13:51:26;;;;;;;;;;;845.40;1561.60;;;;;;5070573;28;19912;-56
2022/08/26 13:53:52;;;;;;;;;;;845.50;1536.00;;;;;;5069994;28;19908;-56
2022/08/26 13:56:18;;;;;;;;;;;845.50;1536.00;;;;;;5070369;28;20343;-56